Terminal Aerodrome Forecast
Issued by NWS

Home | Current Version | Previous Version | Text Only | Print | Product List | Glossary On
Versions: 1 2 3 4 5 6 7 8 9 10 11 12
000
FTUS42 TJSJ 031751
TAFNCM
TAF
TNCM 031751Z 0318/0418 13008KT P6SM FEW022
     FM032200 08005KT P6SM SCT020
     FM041330 11009KT P6SM FEW030=

USA.gov is the U.S. government's official web portal to all federal, state and local government web resources and services.